createdAt,value
2024-01-06T00:00:32.310Z,88.82
2024-01-06T00:03:35.998Z,88.80
2024-01-06T00:06:38.900Z,88.80
2024-01-06T00:09:41.998Z,88.79
2024-01-06T00:12:45.503Z,88.69
2024-01-06T00:15:48.917Z,89.05
2024-01-06T00:18:52.192Z,88.58
2024-01-06T00:21:55.183Z,88.87
2024-01-06T00:24:58.032Z,88.88
2024-01-06T00:28:01.115Z,88.92
2024-01-06T00:31:04.569Z,88.88
2024-01-06T00:34:08.123Z,88.67
2024-01-06T00:37:11.365Z,88.67
2024-01-06T00:40:14.588Z,88.79
2024-01-06T00:43:17.809Z,88.65
2024-01-06T00:46:20.889Z,88.73
2024-01-06T00:49:24.109Z,88.61
2024-01-06T00:52:26.974Z,88.82
2024-01-06T00:55:32.880Z,89.12
2024-01-06T00:58:36.007Z,88.83
2024-01-06T01:01:38.890Z,88.79
2024-01-06T01:04:42.361Z,89.06
2024-01-06T01:07:45.540Z,89.33
2024-01-06T01:10:48.707Z,89.06
2024-01-06T01:13:52.082Z,89.09
2024-01-06T01:16:55.164Z,88.90
2024-01-06T01:19:58.288Z,89.01
2024-01-06T01:23:01.374Z,89.25
2024-01-06T01:26:04.565Z,89.13
2024-01-06T01:29:07.410Z,89.05
2024-01-06T01:32:10.295Z,89.01
2024-01-06T01:35:13.472Z,88.96
2024-01-06T01:38:16.621Z,89.29
2024-01-06T01:41:19.896Z,89.15
2024-01-06T01:44:23.030Z,89.19
2024-01-06T01:47:26.820Z,89.24
2024-01-06T01:50:32.214Z,89.18
2024-01-06T01:53:35.326Z,88.88
2024-01-06T01:56:40.976Z,88.96
2024-01-06T01:59:44.021Z,88.92
2024-01-06T02:02:47.529Z,89.07
2024-01-06T02:05:50.478Z,89.00
2024-01-06T02:08:53.718Z,88.72
2024-01-06T02:11:59.691Z,88.69
2024-01-06T02:15:02.576Z,88.83
2024-01-06T02:18:06.152Z,88.61
2024-01-06T02:21:12.709Z,88.57
2024-01-06T02:24:15.593Z,88.75
2024-01-06T02:27:18.837Z,88.79
2024-01-06T02:30:21.876Z,88.73
2024-01-06T02:33:25.633Z,88.56
2024-01-06T02:36:28.712Z,88.43
2024-01-06T02:39:31.837Z,88.24
2024-01-06T02:42:35.027Z,88.17
2024-01-06T02:45:38.235Z,87.80
2024-01-06T02:48:41.453Z,87.29
2024-01-06T02:51:44.418Z,87.39
2024-01-06T02:54:47.608Z,87.63
2024-01-06T02:57:50.465Z,87.52
2024-01-06T03:00:53.699Z,87.74
2024-01-06T03:03:56.944Z,87.89
2024-01-06T03:07:00.029Z,87.32
2024-01-06T03:10:03.831Z,87.66
2024-01-06T03:13:08.894Z,87.37
2024-01-06T03:16:13.417Z,87.33
2024-01-06T03:19:16.712Z,87.61
2024-01-06T03:22:19.844Z,87.64
2024-01-06T03:25:22.990Z,88.48
2024-01-06T03:28:26.088Z,88.45
2024-01-06T03:31:28.913Z,89.14
2024-01-06T03:34:32.228Z,89.43
2024-01-06T03:37:35.741Z,89.75
2024-01-06T03:40:38.845Z,90.36
2024-01-06T03:43:41.854Z,90.72
2024-01-06T03:46:44.989Z,92.08
2024-01-06T03:49:48.237Z,92.05
2024-01-06T03:52:51.354Z,91.46
2024-01-06T03:55:54.475Z,91.76
2024-01-06T03:58:57.588Z,91.89
2024-01-06T04:02:00.731Z,91.79
2024-01-06T04:05:06.285Z,92.67
2024-01-06T04:08:09.596Z,92.47
2024-01-06T04:11:12.626Z,93.26
2024-01-06T04:14:15.408Z,93.74
2024-01-06T04:17:18.479Z,93.98
2024-01-06T04:20:21.776Z,94.06
2024-01-06T04:23:26.446Z,93.89
2024-01-06T04:26:29.758Z,94.21
2024-01-06T04:29:33.053Z,94.65
2024-01-06T04:32:36.197Z,94.65
2024-01-06T04:35:39.353Z,95.27
2024-01-06T04:38:42.567Z,95.13
2024-01-06T04:41:45.479Z,95.72
2024-01-06T04:44:48.565Z,96.04
2024-01-06T04:47:52.252Z,96.88
2024-01-06T04:50:55.425Z,96.81
2024-01-06T04:53:58.276Z,96.96
2024-01-06T04:57:01.152Z,97.38
2024-01-06T05:00:05.628Z,97.35
2024-01-06T05:03:09.616Z,97.72
2024-01-06T05:06:13.288Z,97.80
2024-01-06T05:09:16.258Z,97.81
2024-01-06T05:12:19.145Z,97.88
2024-01-06T05:15:22.496Z,98.14
2024-01-06T05:18:25.849Z,98.17
2024-01-06T05:21:29.923Z,98.56
2024-01-06T05:24:33.036Z,98.25
2024-01-06T05:27:36.528Z,98.36
2024-01-06T05:30:39.934Z,98.66
2024-01-06T05:33:43.824Z,98.83
2024-01-06T05:36:47.211Z,98.74
2024-01-06T05:39:50.317Z,98.38
2024-01-06T05:42:56.761Z,98.42
2024-01-06T05:45:59.697Z,98.02
2024-01-06T05:49:02.995Z,98.33
2024-01-06T05:52:06.304Z,98.88
2024-01-06T05:55:10.220Z,99.12
2024-01-06T05:58:13.512Z,98.79
2024-01-06T06:01:17.976Z,99.33
2024-01-06T06:04:22.154Z,99.59
2024-01-06T06:07:25.393Z,99.12
2024-01-06T06:10:41.634Z,99.96
2024-01-06T06:13:44.694Z,99.59
2024-01-06T06:16:49.095Z,99.81
2024-01-06T06:19:52.369Z,99.77
2024-01-06T06:22:55.396Z,100.00
2024-01-06T06:25:58.576Z,100.00
2024-01-06T06:29:02.521Z,100.00
2024-01-06T06:32:05.611Z,100.00
2024-01-06T06:35:09.105Z,99.89
2024-01-06T06:38:12.304Z,100.00
2024-01-06T06:41:15.111Z,100.00
2024-01-06T06:44:18.315Z,99.95
2024-01-06T06:47:21.719Z,100.00
2024-01-06T06:50:24.860Z,100.00
2024-01-06T06:53:28.163Z,100.00
2024-01-06T06:56:30.959Z,100.00
2024-01-06T06:59:34.108Z,100.00
2024-01-06T07:02:38.080Z,100.00
2024-01-06T07:05:41.321Z,100.00
2024-01-06T07:08:44.220Z,100.00
2024-01-06T07:11:46.992Z,100.00
2024-01-06T07:14:49.901Z,100.00
2024-01-06T07:17:53.237Z,100.00
2024-01-06T07:20:56.193Z,100.00
2024-01-06T07:23:59.295Z,100.00
2024-01-06T07:27:02.215Z,100.00
2024-01-06T07:30:06.106Z,100.00
2024-01-06T07:33:10.249Z,100.00
2024-01-06T07:36:13.210Z,100.00
2024-01-06T07:39:16.403Z,100.00
2024-01-06T07:42:19.573Z,100.00
2024-01-06T07:45:23.194Z,100.00
2024-01-06T07:48:26.500Z,100.00
2024-01-06T07:51:29.965Z,100.00
2024-01-06T07:54:33.106Z,100.00
2024-01-06T07:57:36.314Z,100.00
2024-01-06T08:00:39.351Z,100.00
2024-01-06T08:03:42.605Z,100.00
2024-01-06T08:06:45.835Z,100.00
2024-01-06T08:09:48.772Z,100.00
2024-01-06T08:12:52.062Z,100.00
2024-01-06T08:15:55.235Z,100.00
2024-01-06T08:18:58.418Z,100.00
2024-01-06T08:22:01.726Z,100.00
2024-01-06T08:25:07.560Z,100.00
2024-01-06T08:28:10.932Z,100.00
2024-01-06T08:31:13.802Z,100.00
2024-01-06T08:34:16.882Z,100.00
2024-01-06T08:37:19.804Z,100.00
2024-01-06T08:40:22.692Z,100.00
2024-01-06T08:43:25.882Z,100.00
2024-01-06T08:46:29.185Z,100.00
2024-01-06T08:49:32.542Z,100.00
2024-01-06T08:52:36.206Z,100.00
2024-01-06T08:55:39.339Z,100.00
2024-01-06T08:58:42.456Z,100.00
2024-01-06T09:01:47.295Z,100.00
2024-01-06T09:04:51.878Z,100.00
2024-01-06T09:07:55.916Z,100.00
2024-01-06T09:10:59.768Z,100.00
2024-01-06T09:14:02.854Z,100.00
2024-01-06T09:17:05.958Z,100.00
2024-01-06T09:20:09.476Z,100.00
2024-01-06T09:23:12.551Z,100.00
2024-01-06T09:26:17.698Z,100.00
2024-01-06T09:29:20.883Z,100.00
2024-01-06T09:32:24.363Z,100.00
2024-01-06T09:35:27.529Z,100.00
2024-01-06T09:38:30.436Z,100.00
2024-01-06T09:41:33.341Z,100.00
2024-01-06T09:44:36.292Z,100.00
2024-01-06T09:47:42.250Z,100.00
2024-01-06T09:50:48.586Z,100.00
2024-01-06T09:54:02.796Z,100.00
2024-01-06T09:57:07.400Z,100.00
2024-01-06T10:00:11.263Z,100.00
2024-01-06T10:03:17.651Z,100.00
2024-01-06T10:06:21.994Z,100.00
2024-01-06T10:09:29.950Z,100.00
2024-01-06T10:12:33.614Z,100.00
2024-01-06T10:15:37.693Z,100.00
2024-01-06T10:18:40.784Z,100.00
2024-01-06T10:21:45.227Z,100.00
2024-01-06T10:24:51.238Z,100.00
2024-01-06T10:27:54.492Z,100.00
2024-01-06T10:30:58.813Z,100.00
2024-01-06T10:34:01.956Z,100.00
2024-01-06T10:37:05.042Z,100.00
2024-01-06T10:40:13.481Z,100.00
2024-01-06T10:43:17.334Z,100.00
2024-01-06T10:46:20.988Z,100.00
2024-01-06T10:49:26.248Z,100.00
2024-01-06T10:52:29.670Z,100.00
2024-01-06T10:55:33.546Z,100.00
2024-01-06T10:58:43.870Z,100.00
2024-01-06T11:01:48.236Z,100.00
2024-01-06T11:04:51.820Z,100.00
2024-01-06T11:08:00.936Z,100.00
2024-01-06T11:11:05.685Z,100.00
2024-01-06T11:14:34.275Z,100.00
2024-01-06T11:17:57.487Z,100.00
2024-01-06T11:21:13.954Z,100.00
2024-01-06T11:24:25.797Z,100.00
2024-01-06T11:27:32.650Z,100.00
2024-01-06T11:31:10.351Z,100.00
2024-01-06T11:34:16.116Z,100.00
2024-01-06T11:37:21.536Z,100.00
2024-01-06T11:40:25.806Z,100.00
2024-01-06T11:43:28.669Z,100.00
2024-01-06T11:46:31.596Z,100.00
2024-01-06T11:49:35.247Z,100.00
2024-01-06T11:52:41.191Z,100.00
2024-01-06T11:55:44.532Z,100.00
2024-01-06T11:58:47.746Z,100.00
2024-01-06T12:01:50.942Z,100.00
2024-01-06T12:04:55.031Z,100.00
2024-01-06T12:08:03.955Z,100.00
2024-01-06T12:11:08.710Z,100.00
2024-01-06T12:14:12.167Z,100.00
2024-01-06T12:17:15.501Z,100.00
2024-01-06T12:20:18.313Z,100.00
2024-01-06T12:23:29.138Z,100.00
2024-01-06T12:26:32.582Z,100.00
2024-01-06T12:29:39.174Z,100.00
2024-01-06T12:32:42.301Z,100.00
2024-01-06T12:35:47.089Z,100.00
2024-01-06T12:38:50.473Z,100.00
2024-01-06T12:41:53.270Z,100.00
2024-01-06T12:44:56.440Z,100.00
2024-01-06T12:47:59.577Z,100.00
2024-01-06T12:51:02.403Z,100.00
2024-01-06T12:54:05.530Z,100.00
2024-01-06T12:57:09.021Z,100.00
2024-01-06T13:00:13.422Z,100.00
2024-01-06T13:03:16.843Z,100.00
2024-01-06T13:06:20.331Z,100.00
2024-01-06T13:09:25.240Z,100.00
2024-01-06T13:12:30.313Z,100.00
2024-01-06T13:15:33.622Z,100.00
2024-01-06T13:18:37.007Z,100.00
2024-01-06T13:21:40.660Z,100.00
2024-01-06T13:24:43.576Z,100.00
2024-01-06T13:27:46.698Z,100.00
2024-01-06T13:30:50.726Z,100.00
2024-01-06T13:33:53.993Z,100.00
2024-01-06T13:36:58.581Z,100.00
2024-01-06T13:40:01.627Z,100.00
2024-01-06T13:43:06.375Z,100.00
2024-01-06T13:46:09.402Z,100.00
2024-01-06T13:49:13.291Z,100.00
2024-01-06T13:52:16.650Z,100.00
2024-01-06T13:55:19.939Z,100.00
2024-01-06T13:58:23.071Z,100.00
2024-01-06T14:01:26.206Z,100.00
2024-01-06T14:04:29.179Z,100.00
2024-01-06T14:07:32.115Z,100.00
2024-01-06T14:10:35.192Z,100.00
2024-01-06T14:13:38.106Z,100.00
2024-01-06T14:16:41.439Z,100.00
2024-01-06T14:19:48.161Z,100.00
2024-01-06T14:22:51.517Z,100.00
2024-01-06T14:25:54.790Z,100.00
2024-01-06T14:28:59.068Z,100.00
2024-01-06T14:32:02.189Z,100.00
2024-01-06T14:35:07.810Z,100.00
2024-01-06T14:38:11.275Z,100.00
2024-01-06T14:41:14.367Z,100.00
2024-01-06T14:44:23.678Z,100.00
2024-01-06T14:47:26.577Z,100.00
2024-01-06T14:50:29.683Z,100.00
2024-01-06T14:53:32.837Z,100.00
2024-01-06T14:56:39.900Z,100.00
2024-01-06T14:59:44.390Z,100.00
2024-01-06T15:02:48.044Z,100.00
2024-01-06T15:05:51.216Z,100.00
2024-01-06T15:08:54.923Z,100.00
2024-01-06T15:11:57.762Z,100.00
2024-01-06T15:15:00.663Z,100.00
2024-01-06T15:18:04.036Z,100.00
2024-01-06T15:21:07.159Z,100.00
2024-01-06T15:24:10.628Z,100.00
2024-01-06T15:27:13.551Z,100.00
2024-01-06T15:30:17.449Z,100.00
2024-01-06T15:33:20.856Z,100.00
2024-01-06T15:36:24.086Z,100.00
2024-01-06T15:39:27.017Z,100.00
2024-01-06T15:42:30.563Z,100.00
2024-01-06T15:45:33.854Z,100.00
2024-01-06T15:48:37.768Z,100.00
2024-01-06T15:51:41.654Z,100.00
2024-01-06T15:54:44.545Z,100.00
2024-01-06T15:57:47.857Z,100.00
2024-01-06T16:00:50.972Z,100.00
2024-01-06T16:03:53.966Z,100.00
2024-01-06T16:06:56.896Z,100.00
2024-01-06T16:09:59.920Z,100.00
2024-01-06T16:13:03.371Z,100.00
2024-01-06T16:16:08.636Z,100.00
2024-01-06T16:19:11.798Z,100.00
2024-01-06T16:22:17.952Z,100.00
2024-01-06T16:25:21.483Z,100.00
2024-01-06T16:28:24.638Z,100.00
2024-01-06T16:31:28.428Z,100.00
2024-01-06T16:34:31.477Z,100.00
2024-01-06T16:37:34.379Z,100.00
2024-01-06T16:40:37.207Z,100.00
2024-01-06T16:43:40.400Z,100.00
2024-01-06T16:46:43.656Z,100.00
2024-01-06T16:49:46.896Z,100.00
2024-01-06T16:52:50.148Z,100.00
2024-01-06T16:55:53.176Z,100.00
2024-01-06T16:58:56.338Z,100.00
2024-01-06T17:02:00.094Z,100.00
2024-01-06T17:05:03.584Z,100.00
2024-01-06T17:08:07.141Z,100.00
2024-01-06T17:11:10.558Z,100.00
2024-01-06T17:14:15.349Z,100.00
2024-01-06T17:17:18.485Z,100.00
2024-01-06T17:20:21.545Z,100.00
2024-01-06T17:23:25.912Z,100.00
2024-01-06T17:26:29.127Z,100.00
2024-01-06T17:29:31.961Z,100.00
2024-01-06T17:32:34.982Z,100.00
2024-01-06T17:35:38.277Z,100.00
2024-01-06T17:38:41.628Z,100.00
2024-01-06T17:41:52.899Z,100.00
2024-01-06T17:45:00.724Z,100.00
2024-01-06T17:48:04.665Z,100.00
2024-01-06T17:51:07.819Z,100.00
2024-01-06T17:54:11.512Z,100.00
2024-01-06T17:57:19.212Z,100.00
2024-01-06T18:00:23.321Z,100.00
2024-01-06T18:03:26.535Z,100.00
2024-01-06T18:06:30.206Z,100.00
2024-01-06T18:09:33.268Z,100.00
2024-01-06T18:12:37.717Z,100.00
2024-01-06T18:15:40.725Z,100.00
2024-01-06T18:18:44.019Z,100.00
2024-01-06T18:21:47.593Z,100.00
2024-01-06T18:24:50.789Z,100.00
2024-01-06T18:27:53.856Z,100.00
2024-01-06T18:30:57.000Z,100.00
2024-01-06T18:34:00.635Z,100.00
2024-01-06T18:37:03.819Z,100.00
2024-01-06T18:40:07.424Z,100.00
2024-01-06T18:43:10.510Z,100.00
2024-01-06T18:46:13.448Z,100.00
2024-01-06T18:49:17.479Z,100.00
2024-01-06T18:52:21.676Z,100.00
2024-01-06T18:55:24.957Z,100.00
2024-01-06T18:58:28.156Z,100.00
2024-01-06T19:01:32.460Z,100.00
2024-01-06T19:04:35.740Z,100.00
2024-01-06T19:07:39.003Z,100.00
2024-01-06T19:10:42.169Z,100.00
2024-01-06T19:13:46.068Z,100.00
2024-01-06T19:16:49.278Z,100.00
2024-01-06T19:19:52.445Z,100.00
2024-01-06T19:23:02.941Z,100.00
2024-01-06T19:26:12.332Z,100.00
2024-01-06T19:29:15.167Z,100.00
2024-01-06T19:32:19.112Z,100.00
2024-01-06T19:35:22.030Z,100.00
2024-01-06T19:38:25.474Z,100.00
2024-01-06T19:41:29.587Z,100.00
2024-01-06T19:44:32.849Z,100.00
2024-01-06T19:47:36.122Z,100.00
2024-01-06T19:50:39.242Z,100.00
2024-01-06T19:53:42.237Z,100.00
2024-01-06T19:56:45.430Z,100.00
2024-01-06T19:59:50.876Z,100.00
2024-01-06T20:02:54.463Z,100.00
2024-01-06T20:05:57.624Z,100.00
2024-01-06T20:09:00.962Z,100.00
2024-01-06T20:12:04.274Z,100.00
2024-01-06T20:15:10.936Z,100.00
2024-01-06T20:18:15.141Z,100.00
2024-01-06T20:21:18.629Z,100.00
2024-01-06T20:24:22.034Z,100.00
2024-01-06T20:27:25.277Z,100.00
2024-01-06T20:30:28.586Z,100.00
2024-01-06T20:33:34.866Z,100.00
2024-01-06T20:36:38.847Z,100.00
2024-01-06T20:39:42.194Z,100.00
2024-01-06T20:42:45.446Z,100.00
2024-01-06T20:45:50.223Z,100.00
2024-01-06T20:48:54.446Z,100.00
2024-01-06T20:51:58.532Z,100.00
2024-01-06T20:55:02.529Z,100.00
2024-01-06T20:58:05.649Z,100.00
2024-01-06T21:01:08.821Z,100.00
2024-01-06T21:04:11.898Z,100.00
2024-01-06T21:07:15.220Z,100.00
2024-01-06T21:10:18.651Z,100.00
2024-01-06T21:13:21.697Z,100.00
2024-01-06T21:16:25.792Z,100.00
2024-01-06T21:19:29.685Z,100.00
2024-01-06T21:22:35.081Z,100.00
2024-01-06T21:25:39.490Z,100.00
2024-01-06T21:28:42.584Z,100.00
2024-01-06T21:31:45.672Z,100.00
2024-01-06T21:34:48.646Z,100.00
2024-01-06T21:37:51.547Z,100.00
2024-01-06T21:40:54.456Z,100.00
2024-01-06T21:43:58.259Z,100.00
2024-01-06T21:47:04.144Z,100.00
2024-01-06T21:50:09.415Z,100.00
2024-01-06T21:53:12.970Z,100.00
2024-01-06T21:56:15.836Z,100.00
2024-01-06T21:59:20.902Z,100.00
2024-01-06T22:02:23.865Z,100.00
2024-01-06T22:05:28.361Z,100.00
2024-01-06T22:08:31.502Z,100.00
2024-01-06T22:11:39.306Z,100.00
2024-01-06T22:14:43.588Z,100.00
2024-01-06T22:17:46.646Z,100.00
2024-01-06T22:20:49.529Z,100.00
2024-01-06T22:23:55.904Z,100.00
2024-01-06T22:26:59.058Z,100.00
2024-01-06T22:30:01.873Z,100.00
2024-01-06T22:33:05.494Z,100.00
2024-01-06T22:36:12.955Z,100.00
2024-01-06T22:39:20.412Z,100.00
2024-01-06T22:42:23.670Z,100.00
2024-01-06T22:45:29.281Z,100.00
2024-01-06T22:48:33.658Z,100.00
2024-01-06T22:51:37.243Z,100.00
2024-01-06T22:54:41.526Z,100.00
2024-01-06T22:57:44.613Z,100.00
2024-01-06T23:00:47.794Z,100.00
2024-01-06T23:03:51.040Z,100.00
2024-01-06T23:06:55.217Z,100.00
2024-01-06T23:09:58.301Z,100.00
2024-01-06T23:13:01.449Z,100.00
2024-01-06T23:16:04.946Z,100.00
2024-01-06T23:19:08.263Z,100.00
2024-01-06T23:22:11.563Z,100.00
2024-01-06T23:25:15.939Z,100.00
2024-01-06T23:28:22.604Z,100.00
2024-01-06T23:31:25.798Z,100.00
2024-01-06T23:34:38.349Z,100.00
2024-01-06T23:37:49.079Z,100.00
2024-01-06T23:40:52.150Z,100.00
2024-01-06T23:43:55.270Z,100.00
2024-01-06T23:46:58.457Z,100.00
2024-01-06T23:50:03.090Z,100.00
2024-01-06T23:53:06.501Z,100.00
2024-01-06T23:56:09.672Z,100.00
2024-01-06T23:59:13.954Z,100.00
